createdAt,value
2022-12-14T00:00:59.708Z,53.78
2022-12-14T00:03:40.693Z,54.45
2022-12-14T00:06:26.423Z,56.47
2022-12-14T00:09:22.182Z,54.45
2022-12-14T00:11:59.571Z,56.00
2022-12-14T00:14:32.301Z,62.47
2022-12-14T00:17:06.722Z,61.20
2022-12-14T00:19:58.478Z,68.35
2022-12-14T00:22:46.579Z,64.15
2022-12-14T00:25:25.550Z,60.28
2022-12-14T00:28:07.400Z,64.72
2022-12-14T00:31:04.642Z,64.75
2022-12-14T00:33:44.134Z,62.92
2022-12-14T00:36:27.308Z,62.45
2022-12-14T00:39:19.242Z,63.40
2022-12-14T00:42:09.444Z,69.25
2022-12-14T00:44:56.370Z,67.47
2022-12-14T00:47:49.420Z,64.30
2022-12-14T00:50:51.616Z,65.15
2022-12-14T00:53:38.812Z,57.40
2022-12-14T00:59:05.359Z,51.63
2022-12-14T01:01:49.967Z,62.35
2022-12-14T01:04:37.602Z,65.25
2022-12-14T01:07:23.691Z,62.92
2022-12-14T01:10:24.054Z,63.53
2022-12-14T01:13:09.621Z,44.80
2022-12-14T01:16:07.432Z,64.17
2022-12-14T01:18:46.577Z,61.90
2022-12-14T01:21:43.202Z,64.15
2022-12-14T01:24:21.609Z,61.15
2022-12-14T01:27:00.086Z,66.22
2022-12-14T01:29:43.466Z,72.28
2022-12-14T01:32:37.589Z,66.65
2022-12-14T01:35:13.585Z,64.93
2022-12-14T01:37:58.554Z,64.07
2022-12-14T01:40:39.096Z,64.57
2022-12-14T01:46:19.345Z,56.10
2022-12-14T01:49:16.613Z,59.25
2022-12-14T01:52:12.169Z,63.40
2022-12-14T01:54:56.970Z,60.70
2022-12-14T01:57:56.693Z,59.97
2022-12-14T02:00:55.581Z,65.35
2022-12-14T02:03:40.638Z,58.17
2022-12-14T02:06:55.190Z,61.38
2022-12-14T02:09:48.258Z,62.33
2022-12-14T02:13:09.350Z,56.80
2022-12-14T02:15:48.747Z,53.55
2022-12-14T02:18:41.810Z,54.17
2022-12-14T02:21:39.477Z,53.47
2022-12-14T02:24:37.588Z,53.55
2022-12-14T02:27:38.563Z,54.38
2022-12-14T02:30:15.326Z,52.17
2022-12-14T02:33:19.375Z,55.15
2022-12-14T02:36:25.755Z,52.22
2022-12-14T02:39:32.066Z,53.33
2022-12-14T02:42:20.512Z,56.22
2022-12-14T02:45:31.212Z,55.40
2022-12-14T02:48:26.500Z,52.88
2022-12-14T02:51:21.385Z,56.38
2022-12-14T02:54:26.738Z,51.08
2022-12-14T02:57:25.693Z,53.40
2022-12-14T03:00:12.607Z,49.50
2022-12-14T03:03:07.872Z,55.65
2022-12-14T03:05:53.922Z,50.35
2022-12-14T03:08:39.733Z,51.33
2022-12-14T03:14:12.896Z,64.22
2022-12-14T03:17:00.071Z,54.95
2022-12-14T03:19:48.908Z,52.85
2022-12-14T03:22:47.197Z,52.08
2022-12-14T03:25:51.984Z,52.45
2022-12-14T03:28:31.792Z,49.10
2022-12-14T03:31:33.154Z,53.42
2022-12-14T03:34:36.421Z,52.30
2022-12-14T03:38:07.640Z,36.50
2022-12-14T03:41:01.866Z,48.95
2022-12-14T03:44:02.120Z,49.72
2022-12-14T03:46:56.910Z,52.15
2022-12-14T03:50:12.697Z,49.80
2022-12-14T03:53:17.537Z,50.63
2022-12-14T03:56:45.250Z,48.80
2022-12-14T04:00:02.828Z,46.10
2022-12-14T04:03:18.886Z,48.28
2022-12-14T04:06:29.669Z,51.53
2022-12-14T04:09:20.887Z,55.55
2022-12-14T04:12:51.694Z,56.72
2022-12-14T04:15:50.542Z,53.47
2022-12-14T04:19:00.329Z,54.92
2022-12-14T04:22:01.899Z,54.83
2022-12-14T04:25:06.385Z,55.15
2022-12-14T04:27:45.818Z,50.92
2022-12-14T04:30:24.554Z,52.58
2022-12-14T04:33:26.337Z,49.33
2022-12-14T04:36:07.459Z,48.75
2022-12-14T04:38:47.780Z,52.75
2022-12-14T04:41:37.546Z,49.33
2022-12-14T04:44:47.102Z,47.47
2022-12-14T04:47:25.033Z,46.88
2022-12-14T04:50:39.640Z,51.35
2022-12-14T04:53:47.017Z,45.20
2022-12-14T04:56:46.570Z,45.25
2022-12-14T04:59:32.682Z,43.35
2022-12-14T05:02:19.628Z,42.63
2022-12-14T05:05:30.562Z,44.78
2022-12-14T05:08:32.947Z,39.58
2022-12-14T05:11:53.757Z,45.05
2022-12-14T05:14:51.149Z,39.80
2022-12-14T05:17:35.940Z,42.58
2022-12-14T05:20:39.878Z,43.15
2022-12-14T05:23:26.887Z,38.97
2022-12-14T05:26:09.764Z,39.72
2022-12-14T05:28:52.341Z,44.08
2022-12-14T05:31:34.454Z,43.67
2022-12-14T05:34:14.992Z,41.10
2022-12-14T05:40:05.318Z,39.65
2022-12-14T05:42:58.531Z,42.72
2022-12-14T05:45:42.476Z,39.55
2022-12-14T05:48:29.350Z,45.47
2022-12-14T05:51:35.302Z,41.90
2022-12-14T05:54:41.052Z,40.13
2022-12-14T05:57:19.218Z,40.30
2022-12-14T06:00:10.331Z,40.80
2022-12-14T06:02:59.543Z,45.05
2022-12-14T06:06:08.599Z,41.50
2022-12-14T06:08:56.744Z,43.05
2022-12-14T06:11:40.583Z,41.05
2022-12-14T06:14:36.855Z,43.30
2022-12-14T06:17:28.881Z,40.00
2022-12-14T06:20:18.133Z,38.95
2022-12-14T06:23:12.520Z,39.95
2022-12-14T06:26:01.432Z,38.30
2022-12-14T06:28:47.954Z,42.22
2022-12-14T06:31:41.370Z,38.78
2022-12-14T06:34:23.581Z,38.33
2022-12-14T06:37:14.942Z,42.15
2022-12-14T06:40:07.815Z,41.20
2022-12-14T06:42:59.519Z,41.10
2022-12-14T06:45:51.993Z,38.17
2022-12-14T06:48:48.265Z,40.15
2022-12-14T06:51:50.197Z,36.47
2022-12-14T06:54:34.667Z,40.00
2022-12-14T06:57:12.548Z,38.25
2022-12-14T06:59:57.514Z,38.53
2022-12-14T07:03:00.964Z,37.85
2022-12-14T07:05:48.680Z,37.30
2022-12-14T07:08:30.361Z,38.00
2022-12-14T07:11:16.923Z,36.55
2022-12-14T07:14:00.486Z,37.88
2022-12-14T07:16:43.884Z,35.95
2022-12-14T07:19:28.584Z,33.08
2022-12-14T07:22:28.735Z,35.78
2022-12-14T07:25:21.332Z,34.92
2022-12-14T07:28:03.654Z,31.90
2022-12-14T07:30:47.636Z,33.25
2022-12-14T07:33:36.815Z,33.13
2022-12-14T07:36:17.020Z,33.45
2022-12-14T07:39:02.428Z,31.73
2022-12-14T07:41:44.281Z,33.85
2022-12-14T07:44:30.511Z,34.05
2022-12-14T07:47:19.366Z,33.65
2022-12-14T07:50:09.483Z,32.38
2022-12-14T07:52:53.894Z,32.42
2022-12-14T07:55:35.759Z,33.00
2022-12-14T07:58:19.425Z,31.98
2022-12-14T08:01:32.579Z,29.65
2022-12-14T08:04:23.703Z,33.10
2022-12-14T08:07:23.514Z,34.88
2022-12-14T08:10:26.959Z,31.35
2022-12-14T08:13:05.067Z,31.83
2022-12-14T08:15:48.586Z,28.88
2022-12-14T08:18:37.600Z,29.02
2022-12-14T08:21:23.938Z,28.88
2022-12-14T08:24:19.086Z,28.33
2022-12-14T08:26:58.064Z,30.63
2022-12-14T08:29:37.982Z,30.05
2022-12-14T08:32:33.915Z,27.60
2022-12-14T08:38:15.662Z,27.20
2022-12-14T08:41:04.758Z,25.92
2022-12-14T08:43:57.375Z,26.15
2022-12-14T08:46:47.782Z,26.92
2022-12-14T08:49:41.074Z,24.73
2022-12-14T08:52:33.545Z,24.17
2022-12-14T08:55:08.903Z,25.30
2022-12-14T08:57:57.552Z,23.48
2022-12-14T09:00:43.876Z,26.95
2022-12-14T09:03:31.780Z,21.60
2022-12-14T09:06:32.652Z,23.05
2022-12-14T09:09:32.653Z,21.85
2022-12-14T09:12:21.594Z,22.48
2022-12-14T09:15:22.745Z,25.38
2022-12-14T09:18:00.737Z,23.33
2022-12-14T09:20:47.247Z,22.52
2022-12-14T09:23:57.295Z,24.70
2022-12-14T09:26:44.622Z,24.30
2022-12-14T09:29:36.765Z,24.00
2022-12-14T09:32:33.508Z,22.77
2022-12-14T09:35:20.063Z,25.75
2022-12-14T09:38:04.214Z,29.70
2022-12-14T09:40:47.996Z,24.95
2022-12-14T09:43:49.219Z,26.27
2022-12-14T09:46:36.611Z,24.70
2022-12-14T09:49:39.556Z,25.65
2022-12-14T09:52:54.043Z,25.02
2022-12-14T09:55:45.656Z,25.15
2022-12-14T09:58:30.991Z,22.85
2022-12-14T10:05:18.780Z,22.20
2022-12-14T10:08:20.086Z,24.25
2022-12-14T10:11:30.505Z,25.35
2022-12-14T10:14:50.943Z,24.63
2022-12-14T10:18:49.380Z,23.45
2022-12-14T10:21:52.421Z,23.05
2022-12-14T10:24:53.350Z,23.73
2022-12-14T10:28:01.229Z,23.38
2022-12-14T10:31:18.955Z,25.52
2022-12-14T10:34:23.542Z,25.17
2022-12-14T10:37:26.885Z,24.95
2022-12-14T10:40:34.483Z,23.50
2022-12-14T10:44:00.028Z,26.92
2022-12-14T10:47:02.567Z,25.38
2022-12-14T10:50:15.753Z,25.55
2022-12-14T10:52:58.212Z,23.92
2022-12-14T10:55:48.340Z,27.30
2022-12-14T10:58:29.724Z,26.27
2022-12-14T11:01:17.955Z,26.63
2022-12-14T11:03:58.246Z,27.52
2022-12-14T11:06:46.885Z,25.10
2022-12-14T11:09:35.201Z,25.63
2022-12-14T11:12:44.519Z,25.33
2022-12-14T11:15:35.510Z,24.98
2022-12-14T11:18:25.491Z,25.67
2022-12-14T11:21:21.053Z,27.60
2022-12-14T11:24:07.344Z,28.95
2022-12-14T11:26:57.808Z,26.23
2022-12-14T11:29:45.027Z,24.90
2022-12-14T11:32:51.635Z,24.13
2022-12-14T11:35:43.406Z,23.83
2022-12-14T11:38:35.179Z,24.38
2022-12-14T11:41:30.827Z,25.85
2022-12-14T11:44:41.687Z,25.92
2022-12-14T11:47:38.916Z,25.55
2022-12-14T11:50:41.609Z,25.15
2022-12-14T11:53:26.986Z,25.00
2022-12-14T11:56:22.686Z,25.90
2022-12-14T11:59:14.009Z,25.92
2022-12-14T12:01:58.734Z,25.63
2022-12-14T12:04:45.438Z,27.55
2022-12-14T12:07:40.190Z,25.73
2022-12-14T12:11:02.785Z,28.13
2022-12-14T12:13:48.248Z,25.55
2022-12-14T12:16:33.701Z,26.15
2022-12-14T12:19:23.517Z,25.77
2022-12-14T12:22:11.885Z,25.98
2022-12-14T12:25:25.736Z,26.30
2022-12-14T12:28:30.009Z,24.67
2022-12-14T12:31:17.428Z,23.77
2022-12-14T12:34:10.627Z,23.92
2022-12-14T12:37:24.862Z,25.52
2022-12-14T12:40:07.895Z,24.95
2022-12-14T12:42:48.890Z,23.63
2022-12-14T12:45:41.468Z,25.40
2022-12-14T12:48:43.415Z,22.83
2022-12-14T12:52:08.105Z,25.73
2022-12-14T12:55:10.051Z,25.48
2022-12-14T12:57:56.787Z,24.88
2022-12-14T13:00:35.770Z,23.90
2022-12-14T13:03:26.491Z,24.05
2022-12-14T13:06:33.859Z,22.42
2022-12-14T13:09:50.548Z,23.50
2022-12-14T13:12:56.063Z,25.63
2022-12-14T13:16:01.013Z,25.38
2022-12-14T13:19:25.383Z,26.05
2022-12-14T13:22:17.683Z,25.88
2022-12-14T13:25:04.683Z,26.05
2022-12-14T13:28:04.469Z,23.48
2022-12-14T13:31:11.379Z,21.38
2022-12-14T13:34:12.375Z,24.48
2022-12-14T13:36:57.021Z,25.08
2022-12-14T13:39:56.693Z,23.27
2022-12-14T13:42:55.594Z,24.00
2022-12-14T13:45:50.352Z,24.13
2022-12-14T13:48:56.863Z,22.80
2022-12-14T13:51:43.427Z,25.88
2022-12-14T13:54:45.942Z,25.70
2022-12-14T13:57:37.588Z,27.88
2022-12-14T14:01:02.146Z,24.58
2022-12-14T14:04:22.493Z,24.55
2022-12-14T14:07:54.089Z,27.02
2022-12-14T14:10:45.200Z,27.08
2022-12-14T14:14:18.465Z,29.83
2022-12-14T14:17:02.622Z,28.75
2022-12-14T14:23:24.027Z,27.35
2022-12-14T14:26:49.750Z,26.55
2022-12-14T14:29:40.489Z,30.45
2022-12-14T14:32:44.961Z,29.30
2022-12-14T14:35:49.728Z,30.38
2022-12-14T14:38:36.955Z,29.55
2022-12-14T14:41:37.501Z,26.35
2022-12-14T14:44:58.862Z,27.25
2022-12-14T14:47:47.118Z,31.30
2022-12-14T14:50:53.886Z,29.25
2022-12-14T15:00:20.491Z,29.58
2022-12-14T15:03:09.261Z,31.15
2022-12-14T15:06:08.743Z,32.47
2022-12-14T15:08:58.006Z,32.40
2022-12-14T15:11:55.161Z,31.52
2022-12-14T15:14:58.659Z,29.77
2022-12-14T15:17:47.789Z,28.08
2022-12-14T15:21:16.682Z,29.58
2022-12-14T15:23:59.303Z,29.77
2022-12-14T15:26:46.786Z,30.75
2022-12-14T15:29:49.553Z,29.20
2022-12-14T15:32:45.779Z,33.35
2022-12-14T15:35:49.560Z,33.13
2022-12-14T15:38:38.549Z,34.67
2022-12-14T15:41:34.960Z,32.20
2022-12-14T15:44:45.655Z,31.40
2022-12-14T15:48:03.928Z,31.75
2022-12-14T15:50:44.335Z,33.00
2022-12-14T15:53:49.882Z,32.10
2022-12-14T15:57:11.187Z,33.53
2022-12-14T16:00:07.539Z,33.55
2022-12-14T16:02:57.300Z,32.67
2022-12-14T16:05:39.278Z,34.00
2022-12-14T16:08:36.521Z,34.63
2022-12-14T16:11:27.200Z,34.60
2022-12-14T16:14:46.655Z,35.07
2022-12-14T16:17:48.310Z,35.28
2022-12-14T16:20:45.875Z,35.85
2022-12-14T16:23:28.457Z,35.65
2022-12-14T16:26:20.611Z,37.50
2022-12-14T16:29:21.411Z,35.30
2022-12-14T16:32:31.355Z,37.08
2022-12-14T16:38:30.021Z,35.03
2022-12-14T16:41:26.632Z,34.67
2022-12-14T16:44:11.035Z,33.72
2022-12-14T16:47:23.982Z,34.83
2022-12-14T16:50:55.803Z,34.45
2022-12-14T16:53:35.746Z,33.78
2022-12-14T16:56:45.354Z,25.33
2022-12-14T17:00:14.683Z,34.53
2022-12-14T17:03:23.755Z,35.75
2022-12-14T17:06:06.683Z,32.72
2022-12-14T17:09:05.821Z,28.07
2022-12-14T17:11:55.194Z,36.30
2022-12-14T17:14:49.954Z,33.13
2022-12-14T17:17:49.656Z,37.30
2022-12-14T17:20:39.700Z,38.53
2022-12-14T17:23:28.155Z,37.15
2022-12-14T17:26:20.983Z,37.88
2022-12-14T17:29:08.935Z,39.05
2022-12-14T17:31:50.157Z,40.20
2022-12-14T17:34:41.653Z,38.20
2022-12-14T17:37:36.199Z,35.80
2022-12-14T17:40:28.054Z,34.45
2022-12-14T17:43:32.990Z,35.13
2022-12-14T17:46:29.849Z,32.58
2022-12-14T17:49:38.477Z,33.17
2022-12-14T17:52:42.835Z,32.35
2022-12-14T17:55:37.295Z,33.38
2022-12-14T17:58:16.579Z,33.78
2022-12-14T18:01:07.011Z,32.78
2022-12-14T18:03:51.206Z,31.35
2022-12-14T18:09:47.995Z,33.88
2022-12-14T18:12:41.237Z,32.95
2022-12-14T18:15:35.151Z,33.95
2022-12-14T18:18:21.021Z,32.60
2022-12-14T18:21:31.901Z,32.28
2022-12-14T18:24:25.604Z,33.47
2022-12-14T18:27:17.493Z,31.58
2022-12-14T18:30:05.806Z,31.83
2022-12-14T18:32:57.211Z,34.58
2022-12-14T18:35:49.771Z,31.67
2022-12-14T18:38:38.609Z,30.42
2022-12-14T18:41:22.316Z,31.40
2022-12-14T18:44:01.570Z,31.80
2022-12-14T18:46:53.438Z,34.28
2022-12-14T18:49:40.497Z,31.77
2022-12-14T18:52:40.453Z,33.08
2022-12-14T18:55:46.185Z,31.90
2022-12-14T18:58:29.772Z,32.45
2022-12-14T19:01:17.351Z,33.15
2022-12-14T19:04:03.718Z,36.25
2022-12-14T19:07:02.427Z,34.08
2022-12-14T19:10:03.546Z,33.75
2022-12-14T19:12:52.701Z,38.10
2022-12-14T19:15:40.783Z,35.05
2022-12-14T19:18:37.282Z,32.35
2022-12-14T19:21:30.872Z,32.08
2022-12-14T19:24:29.343Z,33.97
2022-12-14T19:27:14.815Z,33.78
2022-12-14T19:29:56.791Z,31.35
2022-12-14T19:32:45.265Z,32.10
2022-12-14T19:35:36.500Z,33.00
2022-12-14T19:38:25.635Z,34.92
2022-12-14T19:41:21.522Z,31.35
2022-12-14T19:44:01.122Z,30.63
2022-12-14T19:46:49.373Z,31.00
2022-12-14T19:49:41.646Z,31.13
2022-12-14T19:52:29.129Z,30.23
2022-12-14T19:55:14.929Z,32.33
2022-12-14T19:57:56.174Z,34.00
2022-12-14T20:00:50.101Z,30.65
2022-12-14T20:03:38.782Z,28.65
2022-12-14T20:06:22.329Z,31.02
2022-12-14T20:09:15.673Z,30.77
2022-12-14T20:12:02.476Z,27.13
2022-12-14T20:14:43.674Z,33.58
2022-12-14T20:17:43.563Z,31.33
2022-12-14T20:20:32.849Z,31.85
2022-12-14T20:23:31.998Z,33.28
2022-12-14T20:26:17.898Z,30.08
2022-12-14T20:29:11.258Z,32.17
2022-12-14T20:31:58.643Z,32.60
2022-12-14T20:34:43.597Z,33.17
2022-12-14T20:37:35.036Z,32.30
2022-12-14T20:40:19.634Z,33.55
2022-12-14T20:43:12.004Z,32.63
2022-12-14T20:46:02.148Z,29.67
2022-12-14T20:48:48.442Z,31.38
2022-12-14T20:51:36.703Z,32.47
2022-12-14T20:54:36.799Z,30.85
2022-12-14T20:57:29.623Z,32.50
2022-12-14T21:00:17.978Z,31.20
2022-12-14T21:03:09.556Z,32.55
2022-12-14T21:05:57.092Z,30.17
2022-12-14T21:08:53.893Z,32.35
2022-12-14T21:11:53.070Z,32.95
2022-12-14T21:14:51.946Z,30.00
2022-12-14T21:17:50.072Z,30.77
2022-12-14T21:20:42.590Z,29.23
2022-12-14T21:23:29.402Z,30.13
2022-12-14T21:26:20.952Z,30.73
2022-12-14T21:29:24.299Z,29.73
2022-12-14T21:32:15.983Z,31.92
2022-12-14T21:35:13.430Z,34.03
2022-12-14T21:37:55.070Z,31.70
2022-12-14T21:40:55.841Z,31.65
2022-12-14T21:43:44.991Z,33.70
2022-12-14T21:46:37.106Z,32.38
2022-12-14T21:49:23.076Z,29.85
2022-12-14T21:52:08.535Z,31.73
2022-12-14T21:57:50.642Z,29.90
2022-12-14T22:00:46.090Z,33.28
2022-12-14T22:03:29.268Z,33.15
2022-12-14T22:06:14.569Z,31.58
2022-12-14T22:09:00.626Z,35.13
2022-12-14T22:11:52.826Z,32.58
2022-12-14T22:14:35.358Z,33.50
2022-12-14T22:17:20.847Z,33.63
2022-12-14T22:20:10.549Z,23.88
2022-12-14T22:22:51.997Z,31.33
2022-12-14T22:25:32.782Z,29.02
2022-12-14T22:28:18.841Z,30.77
2022-12-14T22:31:14.187Z,30.52
2022-12-14T22:34:07.097Z,29.05
2022-12-14T22:36:49.596Z,29.17
2022-12-14T22:39:57.912Z,31.67
2022-12-14T22:42:48.733Z,31.95
2022-12-14T22:45:47.750Z,30.50
2022-12-14T22:48:38.284Z,31.15
2022-12-14T22:51:32.141Z,31.45
2022-12-14T22:54:32.560Z,30.48
2022-12-14T22:57:20.535Z,29.98
2022-12-14T23:00:11.513Z,33.55
2022-12-14T23:02:55.622Z,27.67
2022-12-14T23:05:50.548Z,42.65
2022-12-14T23:08:33.524Z,29.70
2022-12-14T23:11:27.237Z,27.77
2022-12-14T23:14:29.699Z,28.17
2022-12-14T23:17:30.849Z,29.92
2022-12-14T23:20:34.115Z,27.85
2022-12-14T23:23:37.129Z,22.73
2022-12-14T23:26:36.552Z,27.63
2022-12-14T23:29:42.335Z,27.98
2022-12-14T23:32:43.332Z,31.08
2022-12-14T23:35:46.555Z,29.65
2022-12-14T23:38:52.192Z,28.67
2022-12-14T23:41:51.373Z,28.75
2022-12-14T23:44:50.193Z,29.73
2022-12-14T23:47:49.241Z,28.67
2022-12-14T23:50:52.200Z,29.33
2022-12-14T23:53:53.506Z,28.75
2022-12-14T23:56:35.515Z,28.23
2022-12-14T23:59:32.002Z,28.25
